KFNL/FNL METAR and TAF weather

Enter ICAO airport designator
Station Type Date Time Source
KFNL METAR 2019/12/13 02:56 UTC NOAA

KFNL 130256Z AUTO 10003KT 10SM FEW100 SCT120 00/M04 A2994 RMK AO2 SLP156 T00001039 52005 FZRANO


Station Type Date Time Source
KFNL Decoded METAR 2019/12/13 02:56 UTC NOAA

Fort Collins/Loveland, Fort Collins-Loveland Municipal Airport, CO, United States (KFNL) 40-27N 105-01W
Dec 12, 2019 - 09:56 PM EST / 2019.12.13 0256 UTC
Wind: from the E (100 degrees) at 3 MPH (3 KT):0
Visibility: 10 mile(s):0
Sky conditions: partly cloudy
Temperature: 32.0 F (0.0 C)
Dew Point: 25.0 F (-3.9 C)
Relative Humidity: 74%
Pressure (altimeter): 29.94 in. Hg (1013 hPa)
Pressure tendency: 0.01 inches (0.5 hPa) higher than three hours ago
ob: KFNL 130256Z AUTO 10003KT 10SM FEW100 SCT120 00/M04 A2994 RMK AO2 SLP156 T00001039 52005 FZRANO
cycle: 3

Station Type Date Time Source
KFNL TAF UTC NOAA

Error!

Example: see airport list